Knott, Texas
Current Conditions -  °F | °C
As of 6:35 AM on Monday 22 Dec 2014 (Local Time) from KBPG Reporting Station
Clear Clear  
Wind Chill: 52°   Ceiling: Unl
Heat Index: 52°   Visibility: 10mi
Dew Point: 30°   Wind: 7mph
Humidity: 43%   Direction: 190°S
Pressure: 29.71"   Gusts: NA
Location:  32.4°N, 101.64°W
Report Text: KBPG 221235Z AUTO 19006KT 10SM CLR 11/M01 A2971 RMK AO2 T01121011
Loading
Personal Weather Stations






























Interactive Weather Map New forecast layout! Learn more

10-Day Weather Forecast

Advertisements
Track Severe Weather on mobile